VRG2340 SUMU-SABE
Flight info
| Callsign | VRG2340 |
|---|---|
| Flight time | 0h 33m |
| Altitude | 16000 |
| Route | DAGUS DCT UGIMI UGIMI8R |
| Aircraft | B738/M-SDE2E3FGHIRWXY/LB1 |
Departure
| Time | 2026-04-26 12:31 |
|---|---|
| Airport | Carrasco General Cesáreo L. Berisso International Airport (SUMU) |
Arrival
| Time | 2026-04-26 13:05 |
|---|---|
| Airport | Aeroparque Jorge Newbery (SABE) |
| Time | Latitude | Longitude | Altitude | Speed | Heading |
|---|---|---|---|---|---|
| 2026-04-26 12:13 | -34.83651 | -56.01859 | 75 ft | 0 kts | 143° |
| 2026-04-26 12:22 | -34.83644 | -56.01865 | 75 ft | 2 kts | 143° |
| 2026-04-26 12:22 | -34.83632 | -56.01876 | 75 ft | 2 kts | 143° |
| 2026-04-26 12:22 | -34.83624 | -56.01883 | 75 ft | 2 kts | 143° |
| 2026-04-26 12:22 | -34.83607 | -56.01895 | 76 ft | 2 kts | 168° |
| 2026-04-26 12:23 | -34.83597 | -56.01897 | 76 ft | 2 kts | 181° |
| 2026-04-26 12:23 | -34.83578 | -56.01891 | 77 ft | 2 kts | 209° |
| 2026-04-26 12:23 | -34.83570 | -56.01884 | 77 ft | 2 kts | 223° |
| 2026-04-26 12:23 | -34.83563 | -56.01875 | 77 ft | 1 kts | 234° |
| 2026-04-26 12:24 | -34.83561 | -56.01873 | 77 ft | 0 kts | 233° |
| 2026-04-26 12:26 | -34.83576 | -56.01896 | 76 ft | 8 kts | 234° |
| 2026-04-26 12:26 | -34.83609 | -56.01952 | 75 ft | 15 kts | 234° |
| 2026-04-26 12:26 | -34.83701 | -56.02105 | 72 ft | 17 kts | 234° |
| 2026-04-26 12:27 | -34.83780 | -56.02222 | 70 ft | 18 kts | 214° |
| 2026-04-26 12:27 | -34.83907 | -56.02245 | 66 ft | 19 kts | 181° |
| 2026-04-26 12:27 | -34.83991 | -56.02268 | 65 ft | 17 kts | 245° |
| 2026-04-26 12:27 | -34.84006 | -56.02469 | 64 ft | 17 kts | 270° |
| 2026-04-26 12:28 | -34.84003 | -56.02618 | 63 ft | 17 kts | 271° |
| 2026-04-26 12:28 | -34.84014 | -56.02713 | 63 ft | 16 kts | 257° |
| 2026-04-26 12:28 | -34.84012 | -56.02898 | 62 ft | 14 kts | 271° |
| 2026-04-26 12:28 | -34.84012 | -56.02928 | 62 ft | 0 kts | 271° |
| 2026-04-26 12:29 | -34.84012 | -56.02952 | 62 ft | 7 kts | 271° |
| 2026-04-26 12:29 | -34.84135 | -56.03041 | 59 ft | 11 kts | 153° |
| 2026-04-26 12:30 | -34.84179 | -56.03045 | 58 ft | 9 kts | 240° |
| 2026-04-26 12:30 | -34.84163 | -56.03071 | 59 ft | 0 kts | 350° |
| 2026-04-26 12:31 | -34.82978 | -56.03095 | 63 ft | 147 kts | 359° |
| 2026-04-26 12:31 | -34.81848 | -56.03107 | 412 ft | 168 kts | 359° |
| 2026-04-26 12:31 | -34.80682 | -56.03080 | 1145 ft | 169 kts | 358° |
| 2026-04-26 12:31 | -34.79533 | -56.03001 | 1847 ft | 169 kts | 358° |
| 2026-04-26 12:32 | -34.78305 | -56.02921 | 2236 ft | 183 kts | 348° |
| 2026-04-26 12:32 | -34.77148 | -56.03499 | 2682 ft | 185 kts | 313° |
| 2026-04-26 12:32 | -34.76551 | -56.05989 | 3500 ft | 205 kts | 257° |
| 2026-04-26 12:33 | -34.77744 | -56.07946 | 4114 ft | 239 kts | 217° |
| 2026-04-26 12:33 | -34.79374 | -56.08640 | 4597 ft | 264 kts | 193° |
| 2026-04-26 12:33 | -34.81267 | -56.08834 | 5212 ft | 276 kts | 188° |
| 2026-04-26 12:33 | -34.83210 | -56.08894 | 5912 ft | 284 kts | 184° |
| 2026-04-26 12:34 | -34.85194 | -56.08919 | 6644 ft | 287 kts | 188° |
| 2026-04-26 12:34 | -34.87191 | -56.09111 | 7394 ft | 289 kts | 192° |
| 2026-04-26 12:34 | -34.88500 | -56.09317 | 7862 ft | 292 kts | 194° |
| 2026-04-26 12:34 | -34.91198 | -56.09841 | 8863 ft | 295 kts | 195° |
| 2026-04-26 12:35 | -34.93217 | -56.10258 | 9569 ft | 299 kts | 195° |
| 2026-04-26 12:35 | -34.95282 | -56.10683 | 10228 ft | 305 kts | 196° |
| 2026-04-26 12:35 | -34.97370 | -56.11317 | 10662 ft | 313 kts | 206° |
| 2026-04-26 12:35 | -34.99298 | -56.12565 | 11050 ft | 318 kts | 224° |
| 2026-04-26 12:36 | -35.00900 | -56.14476 | 11489 ft | 323 kts | 237° |
| 2026-04-26 12:36 | -35.02149 | -56.16776 | 11958 ft | 328 kts | 247° |
| 2026-04-26 12:36 | -35.02966 | -56.19336 | 12651 ft | 325 kts | 262° |
| 2026-04-26 12:36 | -35.03153 | -56.22039 | 13494 ft | 319 kts | 275° |
| 2026-04-26 12:37 | -35.02998 | -56.24727 | 14337 ft | 320 kts | 278° |
| 2026-04-26 12:37 | -35.02863 | -56.26479 | 14885 ft | 320 kts | 278° |
| 2026-04-26 12:37 | -35.02646 | -56.29203 | 15562 ft | 323 kts | 277° |
| 2026-04-26 12:37 | -35.02368 | -56.32814 | 15851 ft | 323 kts | 277° |
| 2026-04-26 12:38 | -35.02170 | -56.35518 | 15841 ft | 320 kts | 277° |
| 2026-04-26 12:38 | -35.02039 | -56.37331 | 15838 ft | 319 kts | 277° |
| 2026-04-26 12:38 | -35.01848 | -56.39993 | 15851 ft | 318 kts | 277° |
| 2026-04-26 12:38 | -35.01589 | -56.43594 | 15846 ft | 318 kts | 277° |
| 2026-04-26 12:39 | -35.01398 | -56.46245 | 15845 ft | 318 kts | 277° |
| 2026-04-26 12:39 | -35.01203 | -56.48944 | 15846 ft | 319 kts | 277° |
| 2026-04-26 12:39 | -35.01072 | -56.50751 | 15849 ft | 317 kts | 276° |
| 2026-04-26 12:39 | -35.00814 | -56.54305 | 15858 ft | 318 kts | 277° |
| 2026-04-26 12:40 | -35.00618 | -56.56979 | 15855 ft | 315 kts | 276° |
| 2026-04-26 12:40 | -35.00422 | -56.59649 | 15854 ft | 318 kts | 276° |
| 2026-04-26 12:40 | -35.00291 | -56.61429 | 15863 ft | 318 kts | 276° |
| 2026-04-26 12:40 | -35.00093 | -56.64112 | 15855 ft | 316 kts | 276° |
| 2026-04-26 12:41 | -34.99899 | -56.66741 | 15855 ft | 315 kts | 277° |
| 2026-04-26 12:41 | -34.99634 | -56.70311 | 15859 ft | 315 kts | 277° |
| 2026-04-26 12:41 | -34.99501 | -56.72096 | 15858 ft | 314 kts | 277° |
| 2026-04-26 12:41 | -34.99237 | -56.75631 | 15862 ft | 315 kts | 277° |
| 2026-04-26 12:42 | -34.99039 | -56.78276 | 15863 ft | 315 kts | 277° |
| 2026-04-26 12:42 | -34.98838 | -56.80957 | 15857 ft | 316 kts | 277° |
| 2026-04-26 12:42 | -34.98704 | -56.82732 | 15857 ft | 315 kts | 277° |
| 2026-04-26 12:42 | -34.98501 | -56.85410 | 15863 ft | 316 kts | 277° |
| 2026-04-26 12:43 | -34.98246 | -56.88960 | 15862 ft | 315 kts | 276° |
| 2026-04-26 12:43 | -34.98181 | -56.90734 | 15865 ft | 316 kts | 274° |
| 2026-04-26 12:43 | -34.98176 | -56.94315 | 15870 ft | 315 kts | 272° |
| 2026-04-26 12:43 | -34.98204 | -56.96968 | 15865 ft | 315 kts | 272° |
| 2026-04-26 12:44 | -34.98219 | -56.98731 | 15863 ft | 314 kts | 272° |
| 2026-04-26 12:44 | -34.98230 | -57.02267 | 15869 ft | 315 kts | 272° |
| 2026-04-26 12:44 | -34.98228 | -57.04069 | 15871 ft | 312 kts | 273° |
| 2026-04-26 12:44 | -34.98215 | -57.07590 | 15874 ft | 313 kts | 272° |
| 2026-04-26 12:45 | -34.98201 | -57.10219 | 15859 ft | 312 kts | 272° |
| 2026-04-26 12:45 | -34.98187 | -57.12851 | 15864 ft | 311 kts | 272° |
| 2026-04-26 12:45 | -34.98174 | -57.15501 | 15866 ft | 312 kts | 272° |
| 2026-04-26 12:45 | -34.98161 | -57.18129 | 15870 ft | 311 kts | 272° |
| 2026-04-26 12:46 | -34.98152 | -57.19916 | 15863 ft | 312 kts | 272° |
| 2026-04-26 12:46 | -34.98133 | -57.23409 | 15861 ft | 311 kts | 273° |
| 2026-04-26 12:46 | -34.98118 | -57.26075 | 15855 ft | 311 kts | 273° |
| 2026-04-26 12:46 | -34.98108 | -57.27814 | 15856 ft | 312 kts | 273° |
| 2026-04-26 12:47 | -34.98092 | -57.30437 | 15856 ft | 309 kts | 273° |
| 2026-04-26 12:47 | -34.98071 | -57.33963 | 15846 ft | 310 kts | 272° |
| 2026-04-26 12:47 | -34.98053 | -57.36577 | 15861 ft | 308 kts | 272° |
| 2026-04-26 12:47 | -34.98035 | -57.39187 | 15862 ft | 309 kts | 272° |
| 2026-04-26 12:48 | -34.98017 | -57.41816 | 15867 ft | 308 kts | 272° |
| 2026-04-26 12:48 | -34.98000 | -57.44382 | 15632 ft | 301 kts | 272° |
| 2026-04-26 12:48 | -34.97982 | -57.46923 | 15261 ft | 302 kts | 273° |
| 2026-04-26 12:48 | -34.97961 | -57.49511 | 14793 ft | 309 kts | 273° |
| 2026-04-26 12:49 | -34.97941 | -57.52079 | 14297 ft | 306 kts | 274° |
| 2026-04-26 12:49 | -34.97928 | -57.53821 | 13971 ft | 304 kts | 274° |
| 2026-04-26 12:49 | -34.97901 | -57.57197 | 13325 ft | 299 kts | 274° |
| 2026-04-26 12:49 | -34.97879 | -57.59755 | 12849 ft | 301 kts | 274° |
| 2026-04-26 12:50 | -34.97863 | -57.61464 | 12529 ft | 307 kts | 274° |
| 2026-04-26 12:50 | -34.97837 | -57.64056 | 12012 ft | 307 kts | 274° |
| 2026-04-26 12:50 | -34.97815 | -57.66632 | 11533 ft | 303 kts | 274° |
| 2026-04-26 12:50 | -34.97785 | -57.70027 | 10879 ft | 300 kts | 274° |
| 2026-04-26 12:51 | -34.97770 | -57.71710 | 10643 ft | 295 kts | 274° |
| 2026-04-26 12:51 | -34.97748 | -57.74149 | 10428 ft | 285 kts | 273° |
| 2026-04-26 12:51 | -34.97720 | -57.77255 | 10294 ft | 267 kts | 274° |
| 2026-04-26 12:51 | -34.97699 | -57.79464 | 10187 ft | 255 kts | 274° |
| 2026-04-26 12:52 | -34.97677 | -57.81577 | 10082 ft | 246 kts | 274° |
| 2026-04-26 12:52 | -34.97652 | -57.83692 | 9964 ft | 249 kts | 274° |
| 2026-04-26 12:52 | -34.97628 | -57.85782 | 9680 ft | 246 kts | 274° |
| 2026-04-26 12:52 | -34.97580 | -57.87843 | 9293 ft | 238 kts | 277° |
| 2026-04-26 12:53 | -34.97203 | -57.89727 | 9023 ft | 229 kts | 296° |
| 2026-04-26 12:53 | -34.96180 | -57.91230 | 8707 ft | 240 kts | 317° |
| 2026-04-26 12:53 | -34.95280 | -57.92054 | 8472 ft | 243 kts | 319° |
| 2026-04-26 12:53 | -34.93482 | -57.93689 | 8038 ft | 239 kts | 318° |
| 2026-04-26 12:54 | -34.92600 | -57.94517 | 7825 ft | 238 kts | 317° |
| 2026-04-26 12:54 | -34.91312 | -57.95735 | 7512 ft | 236 kts | 317° |
| 2026-04-26 12:54 | -34.89594 | -57.97360 | 7101 ft | 233 kts | 317° |
| 2026-04-26 12:54 | -34.88305 | -57.98581 | 6797 ft | 239 kts | 317° |
| 2026-04-26 12:55 | -34.87414 | -57.99421 | 6582 ft | 242 kts | 317° |
| 2026-04-26 12:55 | -34.85636 | -58.01094 | 6147 ft | 240 kts | 317° |
| 2026-04-26 12:55 | -34.84762 | -58.01912 | 5938 ft | 238 kts | 317° |
| 2026-04-26 12:55 | -34.83029 | -58.03540 | 5522 ft | 236 kts | 317° |
| 2026-04-26 12:56 | -34.82164 | -58.04355 | 5317 ft | 235 kts | 317° |
| 2026-04-26 12:56 | -34.80871 | -58.05574 | 5010 ft | 233 kts | 317° |
| 2026-04-26 12:56 | -34.79143 | -58.07205 | 4608 ft | 240 kts | 317° |
| 2026-04-26 12:56 | -34.77813 | -58.08458 | 4285 ft | 240 kts | 317° |
| 2026-04-26 12:57 | -34.76502 | -58.09692 | 3969 ft | 238 kts | 317° |
| 2026-04-26 12:57 | -34.75198 | -58.10920 | 3777 ft | 231 kts | 317° |
| 2026-04-26 12:57 | -34.73959 | -58.12078 | 3715 ft | 219 kts | 317° |
| 2026-04-26 12:58 | -34.71604 | -58.14295 | 3641 ft | 214 kts | 316° |
| 2026-04-26 12:58 | -34.70477 | -58.15416 | 3567 ft | 201 kts | 310° |
| 2026-04-26 12:58 | -34.69622 | -58.16670 | 3333 ft | 188 kts | 298° |
| 2026-04-26 12:58 | -34.68948 | -58.17987 | 3116 ft | 178 kts | 297° |
| 2026-04-26 12:59 | -34.68517 | -58.18820 | 2979 ft | 173 kts | 298° |
| 2026-04-26 12:59 | -34.67671 | -58.20358 | 2847 ft | 157 kts | 298° |
| 2026-04-26 12:59 | -34.67260 | -58.21100 | 2811 ft | 156 kts | 298° |
| 2026-04-26 12:59 | -34.66466 | -58.22563 | 2741 ft | 155 kts | 298° |
| 2026-04-26 13:00 | -34.65862 | -58.23658 | 2689 ft | 157 kts | 298° |
| 2026-04-26 13:00 | -34.65250 | -58.24758 | 2520 ft | 158 kts | 298° |
| 2026-04-26 13:00 | -34.64658 | -58.25814 | 2466 ft | 144 kts | 299° |
| 2026-04-26 13:00 | -34.64087 | -58.26839 | 2477 ft | 145 kts | 298° |
| 2026-04-26 13:01 | -34.63526 | -58.27853 | 2470 ft | 146 kts | 298° |
| 2026-04-26 13:01 | -34.62969 | -58.28849 | 2327 ft | 139 kts | 298° |
| 2026-04-26 13:01 | -34.62438 | -58.29798 | 2104 ft | 133 kts | 298° |
| 2026-04-26 13:01 | -34.61922 | -58.30730 | 1933 ft | 132 kts | 299° |
| 2026-04-26 13:02 | -34.61400 | -58.31665 | 1756 ft | 132 kts | 298° |
| 2026-04-26 13:02 | -34.60886 | -58.32581 | 1575 ft | 132 kts | 298° |
| 2026-04-26 13:02 | -34.60540 | -58.33207 | 1476 ft | 136 kts | 299° |
| 2026-04-26 13:02 | -34.60004 | -58.34178 | 1291 ft | 140 kts | 299° |
| 2026-04-26 13:03 | -34.59461 | -58.35158 | 1095 ft | 141 kts | 299° |
| 2026-04-26 13:03 | -34.58908 | -58.36151 | 899 ft | 141 kts | 300° |
| 2026-04-26 13:03 | -34.58362 | -58.37123 | 718 ft | 140 kts | 300° |
| 2026-04-26 13:03 | -34.57633 | -58.38433 | 463 ft | 140 kts | 300° |
| 2026-04-26 13:04 | -34.57300 | -58.39101 | 339 ft | 139 kts | 299° |
| 2026-04-26 13:04 | -34.56769 | -58.40071 | 163 ft | 139 kts | 302° |
| 2026-04-26 13:04 | -34.56235 | -58.41022 | 30 ft | 127 kts | 302° |
| 2026-04-26 13:04 | -34.55844 | -58.41740 | 26 ft | 69 kts | 306° |
| 2026-04-26 13:05 | -34.55643 | -58.42085 | 26 ft | 29 kts | 304° |
| 2026-04-26 13:05 | -34.55529 | -58.42298 | 26 ft | 17 kts | 301° |
| 2026-04-26 13:05 | -34.55487 | -58.42378 | 26 ft | 16 kts | 304° |
| 2026-04-26 13:05 | -34.55402 | -58.42517 | 26 ft | 11 kts | 335° |
| 2026-04-26 13:06 | -34.55361 | -58.42496 | 26 ft | 10 kts | 64° |
| 2026-04-26 13:06 | -34.55360 | -58.42415 | 26 ft | 9 kts | 104° |
| 2026-04-26 13:06 | -34.55401 | -58.42326 | 26 ft | 8 kts | 124° |
| 2026-04-26 13:06 | -34.55435 | -58.42266 | 26 ft | 8 kts | 127° |
| 2026-04-26 13:07 | -34.55471 | -58.42213 | 26 ft | 7 kts | 125° |
| 2026-04-26 13:07 | -34.55505 | -58.42157 | 26 ft | 9 kts | 126° |
| 2026-04-26 13:07 | -34.55535 | -58.42108 | 26 ft | 11 kts | 127° |
| 2026-04-26 13:07 | -34.55611 | -58.41977 | 26 ft | 16 kts | 123° |
| 2026-04-26 13:08 | -34.55653 | -58.41902 | 26 ft | 16 kts | 124° |
| 2026-04-26 13:08 | -34.55715 | -58.41791 | 26 ft | 15 kts | 120° |
| 2026-04-26 13:08 | -34.55765 | -58.41677 | 26 ft | 12 kts | 117° |
| 2026-04-26 13:08 | -34.55759 | -58.41598 | 26 ft | 10 kts | 40° |
| 2026-04-26 13:09 | -34.55685 | -58.41553 | 26 ft | 5 kts | 5° |
| 2026-04-26 13:09 | -34.55657 | -58.41550 | 26 ft | 0 kts | 3° |